Aérodrome :
LOGIN :

S'inscrire | Disclaimer

   EN    FR    IT 

 










Légende :    VFR   VFR Marginal   IFR   IFR Intensif   IFR Très Intensif
Visi : 
Plafond : 
>= 8 km
>= 3000ft
5 à 8 km
1000 à 3000 ft
1500m à 5 km
500 à 1000 ft
800 à 1500m
200 à 500 ft
< 800m
< 200 ft
Symboles :   Orages  Brouillard  Fortes neiges  Fortes précipitations  Vent > 20 kt
SIGMETs :   Divers  Orages  Givrage  Turbulence  Onde Orograph.  Cendres Volcan.







- Altitude de l'aérodrome : 1830 ft


EBLB - Butgenbach Elsenborn

DERNIER METAR :
  • 190955Z AUTO 30009KT 9999 OVC004/// 02/01 Q1018 YLO

METARs EXPIRÉS :
  • 190925Z AUTO 30010KT 9999 OVC004/// 01/01 Q1017 YLO
  • 190855Z AUTO 30010KT 9000 -RASN OVC004/// 01/01 Q1017 YLO
  • 190853Z AUTO 30009KT 4400 -SN OVC004/// 01/01 Q1017 YLO
  • 190825Z AUTO 30010KT 9999 BKN005/// BKN024/// 01/01 Q1017 YLO
  • 190755Z AUTO 30010KT 9999 SCT006/// BKN024/// BKN052/// 01/00 Q1017 YLO

Prévision TAF périmée.
Pas de NOTAMs connus pour ce terrain.



MET'MAP, la Météo Aéronautique d'un coup d'oeil ! - Copyright ORBIFLY Décembre 2007 - Disclaimer

ORBIFLY MET'MAP TEAM :

Programmation & Développement : Alexandra Zaïnal
Conception & Développement : Baudouin d'Aumeries
Co-Programmation & Développement : Marc-Olivier Méhu
Soutien technique & logistique : Manuel Goepfert

Contact : metmap@orbifly.com




SOURCES & CREDITS :

   NOAA